EZY79XU EGKK-LFBO
Flight info
| Callsign | EZY79XU |
|---|---|
| Flight time | 1h 19m |
| Altitude | 35000 |
| Route | SFD Y47 BENBO UY47 DRAKE L151 SITET UN859 SOPIL DCT BALAN DCT EVPOK DCT NARAK |
| Aircraft | A320/M-SDE3FGHIRWY/LB1 |
Departure
| Time | 2026-05-05 22:04 |
|---|---|
| Airport | London Gatwick Airport (EGKK) |
Arrival
| Time | 2026-05-05 23:23 |
|---|---|
| Airport | Toulouse-Blagnac Airport (LFBO) |
| Time | Latitude | Longitude | Altitude | Speed | Heading |
|---|---|---|---|---|---|
| 2026-05-05 21:29 | 51.15591 | -0.17621 | 213 ft | 0 kts | 347° |
| 2026-05-05 21:49 | 51.15575 | -0.17615 | 206 ft | 4 kts | 347° |
| 2026-05-05 21:49 | 51.15551 | -0.17607 | 212 ft | 1 kts | 347° |
| 2026-05-05 21:49 | 51.15532 | -0.17596 | 211 ft | 4 kts | 297° |
| 2026-05-05 21:50 | 51.15531 | -0.17562 | 209 ft | 4 kts | 257° |
| 2026-05-05 21:50 | 51.15534 | -0.17543 | 210 ft | 0 kts | 257° |
| 2026-05-05 21:54 | 51.15527 | -0.17593 | 208 ft | 9 kts | 257° |
| 2026-05-05 21:54 | 51.15509 | -0.17718 | 206 ft | 12 kts | 257° |
| 2026-05-05 21:55 | 51.15492 | -0.17836 | 204 ft | 10 kts | 257° |
| 2026-05-05 21:55 | 51.15478 | -0.17941 | 208 ft | 9 kts | 257° |
| 2026-05-05 21:55 | 51.15464 | -0.18036 | 204 ft | 7 kts | 257° |
| 2026-05-05 21:55 | 51.15460 | -0.18069 | 213 ft | 0 kts | 258° |
| 2026-05-05 21:57 | 51.15455 | -0.18104 | 210 ft | 9 kts | 258° |
| 2026-05-05 21:57 | 51.15443 | -0.18199 | 207 ft | 8 kts | 258° |
| 2026-05-05 21:57 | 51.15418 | -0.18276 | 207 ft | 9 kts | 208° |
| 2026-05-05 21:58 | 51.15359 | -0.18266 | 209 ft | 8 kts | 166° |
| 2026-05-05 21:58 | 51.15289 | -0.18240 | 204 ft | 13 kts | 167° |
| 2026-05-05 21:58 | 51.15208 | -0.18226 | 204 ft | 11 kts | 201° |
| 2026-05-05 21:58 | 51.15185 | -0.18323 | 209 ft | 9 kts | 266° |
| 2026-05-05 21:59 | 51.15171 | -0.18434 | 213 ft | 14 kts | 258° |
| 2026-05-05 21:59 | 51.15144 | -0.18632 | 213 ft | 21 kts | 257° |
| 2026-05-05 21:59 | 51.15113 | -0.18855 | 214 ft | 21 kts | 257° |
| 2026-05-05 21:59 | 51.15081 | -0.19084 | 208 ft | 21 kts | 258° |
| 2026-05-05 22:00 | 51.15050 | -0.19310 | 208 ft | 21 kts | 258° |
| 2026-05-05 22:00 | 51.15020 | -0.19535 | 206 ft | 21 kts | 258° |
| 2026-05-05 22:00 | 51.14988 | -0.19772 | 208 ft | 22 kts | 257° |
| 2026-05-05 22:00 | 51.14953 | -0.20012 | 213 ft | 24 kts | 257° |
| 2026-05-05 22:01 | 51.14916 | -0.20276 | 203 ft | 25 kts | 257° |
| 2026-05-05 22:01 | 51.14876 | -0.20559 | 208 ft | 27 kts | 258° |
| 2026-05-05 22:01 | 51.14836 | -0.20860 | 207 ft | 28 kts | 258° |
| 2026-05-05 22:01 | 51.14803 | -0.21105 | 209 ft | 22 kts | 258° |
| 2026-05-05 22:02 | 51.14761 | -0.21332 | 204 ft | 18 kts | 255° |
| 2026-05-05 22:02 | 51.14678 | -0.21379 | 211 ft | 14 kts | 147° |
| 2026-05-05 22:02 | 51.14593 | -0.21318 | 209 ft | 13 kts | 166° |
| 2026-05-05 22:02 | 51.14522 | -0.21223 | 205 ft | 17 kts | 111° |
| 2026-05-05 22:03 | 51.14539 | -0.21028 | 204 ft | 20 kts | 77° |
| 2026-05-05 22:03 | 51.14609 | -0.20526 | 210 ft | 82 kts | 77° |
| 2026-05-05 22:03 | 51.14780 | -0.19293 | 209 ft | 143 kts | 77° |
| 2026-05-05 22:03 | 51.14990 | -0.17699 | 745 ft | 148 kts | 78° |
| 2026-05-05 22:04 | 51.15196 | -0.16072 | 1462 ft | 151 kts | 78° |
| 2026-05-05 22:04 | 51.15417 | -0.14453 | 2211 ft | 149 kts | 77° |
| 2026-05-05 22:04 | 51.15642 | -0.12849 | 2852 ft | 148 kts | 76° |
| 2026-05-05 22:04 | 51.15864 | -0.11269 | 3421 ft | 149 kts | 76° |
| 2026-05-05 22:05 | 51.16104 | -0.09565 | 3762 ft | 168 kts | 76° |
| 2026-05-05 22:05 | 51.16297 | -0.07595 | 4053 ft | 193 kts | 93° |
| 2026-05-05 22:05 | 51.15680 | -0.05620 | 4340 ft | 220 kts | 135° |
| 2026-05-05 22:05 | 51.14272 | -0.04364 | 4683 ft | 247 kts | 158° |
| 2026-05-05 22:06 | 51.12561 | -0.03442 | 4970 ft | 269 kts | 161° |
| 2026-05-05 22:06 | 51.10758 | -0.02535 | 5006 ft | 273 kts | 161° |
| 2026-05-05 22:06 | 51.08941 | -0.01628 | 5012 ft | 274 kts | 161° |
| 2026-05-05 22:06 | 51.07178 | -0.00755 | 5013 ft | 274 kts | 161° |
| 2026-05-05 22:07 | 51.05351 | 0.00146 | 5048 ft | 276 kts | 161° |
| 2026-05-05 22:07 | 51.03510 | 0.01046 | 5047 ft | 277 kts | 161° |
| 2026-05-05 22:07 | 51.01665 | 0.01940 | 5044 ft | 277 kts | 161° |
| 2026-05-05 22:07 | 50.99815 | 0.02836 | 5040 ft | 277 kts | 161° |
| 2026-05-05 22:08 | 50.97963 | 0.03735 | 5035 ft | 277 kts | 161° |
| 2026-05-05 22:08 | 50.96108 | 0.04636 | 5389 ft | 281 kts | 161° |
| 2026-05-05 22:08 | 50.94235 | 0.05553 | 6410 ft | 282 kts | 161° |
| 2026-05-05 22:08 | 50.92350 | 0.06502 | 7298 ft | 286 kts | 161° |
| 2026-05-05 22:09 | 50.90432 | 0.07427 | 8191 ft | 290 kts | 165° |
| 2026-05-05 22:09 | 50.88466 | 0.08165 | 9081 ft | 294 kts | 167° |
| 2026-05-05 22:09 | 50.86441 | 0.08849 | 9963 ft | 298 kts | 168° |
| 2026-05-05 22:09 | 50.84401 | 0.09505 | 10766 ft | 301 kts | 168° |
| 2026-05-05 22:10 | 50.82334 | 0.10160 | 11573 ft | 304 kts | 168° |
| 2026-05-05 22:10 | 50.80246 | 0.10827 | 12395 ft | 308 kts | 168° |
| 2026-05-05 22:10 | 50.78133 | 0.11513 | 13198 ft | 311 kts | 168° |
| 2026-05-05 22:10 | 50.75975 | 0.11842 | 13973 ft | 314 kts | 181° |
| 2026-05-05 22:11 | 50.73739 | 0.11403 | 14227 ft | 336 kts | 193° |
| 2026-05-05 22:11 | 50.72198 | 0.10834 | 14343 ft | 350 kts | 193° |
| 2026-05-05 22:11 | 50.69791 | 0.09938 | 14820 ft | 360 kts | 193° |
| 2026-05-05 22:11 | 50.67336 | 0.09028 | 15451 ft | 364 kts | 193° |
| 2026-05-05 22:12 | 50.64855 | 0.08118 | 16108 ft | 368 kts | 193° |
| 2026-05-05 22:12 | 50.61511 | 0.06907 | 16933 ft | 375 kts | 193° |
| 2026-05-05 22:12 | 50.59790 | 0.06286 | 17387 ft | 377 kts | 192° |
| 2026-05-05 22:12 | 50.57216 | 0.05361 | 18019 ft | 381 kts | 192° |
| 2026-05-05 22:13 | 50.54610 | 0.04426 | 18563 ft | 386 kts | 193° |
| 2026-05-05 22:13 | 50.51981 | 0.03477 | 19154 ft | 389 kts | 193° |
| 2026-05-05 22:13 | 50.49336 | 0.02525 | 19766 ft | 391 kts | 193° |
| 2026-05-05 22:13 | 50.46673 | 0.01572 | 20324 ft | 395 kts | 193° |
| 2026-05-05 22:14 | 50.43978 | 0.00610 | 20863 ft | 399 kts | 193° |
| 2026-05-05 22:14 | 50.41265 | -0.00355 | 21460 ft | 402 kts | 192° |
| 2026-05-05 22:14 | 50.38566 | -0.01317 | 22077 ft | 403 kts | 193° |
| 2026-05-05 22:14 | 50.35819 | -0.02300 | 22631 ft | 407 kts | 193° |
| 2026-05-05 22:15 | 50.33046 | -0.03294 | 23164 ft | 410 kts | 193° |
| 2026-05-05 22:15 | 50.30251 | -0.04299 | 23662 ft | 414 kts | 193° |
| 2026-05-05 22:15 | 50.27440 | -0.05309 | 24117 ft | 416 kts | 193° |
| 2026-05-05 22:15 | 50.24588 | -0.06177 | 24576 ft | 418 kts | 186° |
| 2026-05-05 22:16 | 50.21676 | -0.06312 | 25025 ft | 420 kts | 176° |
| 2026-05-05 22:16 | 50.18782 | -0.05642 | 25466 ft | 421 kts | 165° |
| 2026-05-05 22:16 | 50.16005 | -0.04185 | 25897 ft | 422 kts | 155° |
| 2026-05-05 22:16 | 50.13315 | -0.02297 | 26304 ft | 424 kts | 155° |
| 2026-05-05 22:17 | 50.10609 | -0.00447 | 26727 ft | 426 kts | 158° |
| 2026-05-05 22:17 | 50.07774 | 0.00882 | 27243 ft | 425 kts | 165° |
| 2026-05-05 22:17 | 50.04902 | 0.01989 | 27726 ft | 425 kts | 165° |
| 2026-05-05 22:17 | 50.02028 | 0.03115 | 28148 ft | 426 kts | 165° |
| 2026-05-05 22:18 | 49.99154 | 0.04256 | 28557 ft | 427 kts | 165° |
| 2026-05-05 22:18 | 49.96266 | 0.05404 | 28921 ft | 429 kts | 164° |
| 2026-05-05 22:18 | 49.93407 | 0.06539 | 29309 ft | 430 kts | 164° |
| 2026-05-05 22:18 | 49.90497 | 0.07687 | 29638 ft | 433 kts | 165° |
| 2026-05-05 22:19 | 49.87569 | 0.08838 | 29986 ft | 434 kts | 164° |
| 2026-05-05 22:19 | 49.84635 | 0.09986 | 30299 ft | 435 kts | 164° |
| 2026-05-05 22:19 | 49.81693 | 0.11133 | 30589 ft | 436 kts | 164° |
| 2026-05-05 22:19 | 49.78756 | 0.12279 | 30892 ft | 436 kts | 164° |
| 2026-05-05 22:20 | 49.75807 | 0.13426 | 31143 ft | 438 kts | 165° |
| 2026-05-05 22:20 | 49.72840 | 0.14577 | 31392 ft | 439 kts | 164° |
| 2026-05-05 22:20 | 49.69877 | 0.15728 | 31676 ft | 440 kts | 164° |
| 2026-05-05 22:20 | 49.66914 | 0.16885 | 32006 ft | 439 kts | 164° |
| 2026-05-05 22:21 | 49.63963 | 0.18059 | 32383 ft | 437 kts | 164° |
| 2026-05-05 22:21 | 49.61026 | 0.19242 | 32737 ft | 436 kts | 163° |
| 2026-05-05 22:21 | 49.58098 | 0.20430 | 33141 ft | 433 kts | 163° |
| 2026-05-05 22:21 | 49.55188 | 0.21614 | 33515 ft | 432 kts | 164° |
| 2026-05-05 22:22 | 49.52322 | 0.22776 | 33864 ft | 431 kts | 164° |
| 2026-05-05 22:22 | 49.49420 | 0.23947 | 34105 ft | 433 kts | 164° |
| 2026-05-05 22:22 | 49.46499 | 0.25125 | 34305 ft | 434 kts | 164° |
| 2026-05-05 22:22 | 49.43571 | 0.26301 | 34526 ft | 435 kts | 165° |
| 2026-05-05 22:23 | 49.40640 | 0.27475 | 34760 ft | 436 kts | 165° |
| 2026-05-05 22:23 | 49.37703 | 0.28644 | 34987 ft | 436 kts | 165° |
| 2026-05-05 22:23 | 49.34759 | 0.29814 | 35226 ft | 436 kts | 165° |
| 2026-05-05 22:23 | 49.31817 | 0.30981 | 35443 ft | 437 kts | 165° |
| 2026-05-05 22:24 | 49.28875 | 0.32156 | 35662 ft | 437 kts | 165° |
| 2026-05-05 22:24 | 49.25929 | 0.33371 | 35836 ft | 439 kts | 164° |
| 2026-05-05 22:24 | 49.22989 | 0.34618 | 36029 ft | 440 kts | 164° |
| 2026-05-05 22:24 | 49.20041 | 0.35881 | 36250 ft | 440 kts | 164° |
| 2026-05-05 22:25 | 49.17092 | 0.37144 | 36450 ft | 440 kts | 164° |
| 2026-05-05 22:25 | 49.14138 | 0.38398 | 36648 ft | 440 kts | 165° |
| 2026-05-05 22:25 | 49.11180 | 0.39648 | 36851 ft | 441 kts | 165° |
| 2026-05-05 22:26 | 49.05268 | 0.42129 | 36935 ft | 440 kts | 165° |
| 2026-05-05 22:26 | 48.99403 | 0.44573 | 36936 ft | 439 kts | 165° |
| 2026-05-05 22:27 | 48.93528 | 0.47019 | 36937 ft | 436 kts | 165° |
| 2026-05-05 22:27 | 48.87679 | 0.49448 | 36934 ft | 436 kts | 165° |
| 2026-05-05 22:28 | 48.81825 | 0.51879 | 36923 ft | 436 kts | 165° |
| 2026-05-05 22:28 | 48.75969 | 0.54284 | 36919 ft | 436 kts | 166° |
| 2026-05-05 22:29 | 48.70093 | 0.56581 | 36922 ft | 436 kts | 166° |
| 2026-05-05 22:29 | 48.64216 | 0.58840 | 36922 ft | 436 kts | 166° |
| 2026-05-05 22:30 | 48.58340 | 0.61128 | 36917 ft | 436 kts | 166° |
| 2026-05-05 22:30 | 48.52466 | 0.63431 | 36922 ft | 436 kts | 166° |
| 2026-05-05 22:31 | 48.46598 | 0.65774 | 36929 ft | 436 kts | 165° |
| 2026-05-05 22:31 | 48.40783 | 0.68163 | 36932 ft | 436 kts | 165° |
| 2026-05-05 22:32 | 48.34931 | 0.70560 | 36907 ft | 437 kts | 165° |
| 2026-05-05 22:32 | 48.29058 | 0.72931 | 36910 ft | 437 kts | 165° |
| 2026-05-05 22:33 | 48.23187 | 0.75293 | 36927 ft | 436 kts | 165° |
| 2026-05-05 22:33 | 48.17314 | 0.77608 | 36916 ft | 437 kts | 166° |
| 2026-05-05 22:34 | 48.11427 | 0.79913 | 36907 ft | 437 kts | 166° |
| 2026-05-05 22:34 | 48.05540 | 0.82216 | 36912 ft | 438 kts | 166° |
| 2026-05-05 22:35 | 47.99654 | 0.84521 | 36918 ft | 437 kts | 166° |
| 2026-05-05 22:35 | 47.93765 | 0.86822 | 36897 ft | 438 kts | 166° |
| 2026-05-05 22:36 | 47.87869 | 0.89117 | 36913 ft | 438 kts | 166° |
| 2026-05-05 22:36 | 47.81976 | 0.91405 | 36906 ft | 438 kts | 166° |
| 2026-05-05 22:37 | 47.76076 | 0.93693 | 36894 ft | 438 kts | 166° |
| 2026-05-05 22:37 | 47.70177 | 0.95966 | 36891 ft | 438 kts | 166° |
| 2026-05-05 22:38 | 47.64267 | 0.98240 | 36890 ft | 439 kts | 166° |
| 2026-05-05 22:38 | 47.58356 | 1.00509 | 36884 ft | 439 kts | 166° |
| 2026-05-05 22:39 | 47.52436 | 1.02785 | 36880 ft | 440 kts | 166° |
| 2026-05-05 22:39 | 47.46504 | 1.05063 | 36878 ft | 440 kts | 166° |
| 2026-05-05 22:40 | 47.40482 | 1.06392 | 36877 ft | 438 kts | 181° |
| 2026-05-05 22:40 | 47.34426 | 1.06233 | 36879 ft | 438 kts | 181° |
| 2026-05-05 22:41 | 47.28330 | 1.06099 | 36881 ft | 438 kts | 181° |
| 2026-05-05 22:41 | 47.22231 | 1.05966 | 36883 ft | 438 kts | 181° |
| 2026-05-05 22:42 | 47.16125 | 1.05818 | 36879 ft | 438 kts | 181° |
| 2026-05-05 22:42 | 47.10023 | 1.05667 | 36897 ft | 438 kts | 181° |
| 2026-05-05 22:43 | 47.03934 | 1.05530 | 36893 ft | 438 kts | 181° |
| 2026-05-05 22:43 | 46.97837 | 1.05349 | 36892 ft | 438 kts | 182° |
| 2026-05-05 22:44 | 46.91791 | 1.05066 | 36888 ft | 437 kts | 182° |
| 2026-05-05 22:44 | 46.85711 | 1.04776 | 36886 ft | 437 kts | 182° |
| 2026-05-05 22:45 | 46.79627 | 1.04514 | 36885 ft | 437 kts | 182° |
| 2026-05-05 22:45 | 46.73553 | 1.04262 | 36884 ft | 437 kts | 182° |
| 2026-05-05 22:46 | 46.67484 | 1.04007 | 36889 ft | 436 kts | 182° |
| 2026-05-05 22:46 | 46.61410 | 1.03752 | 36885 ft | 436 kts | 182° |
| 2026-05-05 22:47 | 46.55346 | 1.03489 | 36887 ft | 436 kts | 182° |
| 2026-05-05 22:47 | 46.49304 | 1.04086 | 36886 ft | 437 kts | 168° |
| 2026-05-05 22:48 | 46.43417 | 1.06073 | 36889 ft | 438 kts | 168° |
| 2026-05-05 22:48 | 46.37485 | 1.08063 | 36891 ft | 438 kts | 168° |
| 2026-05-05 22:49 | 46.31540 | 1.10037 | 36901 ft | 438 kts | 168° |
| 2026-05-05 22:49 | 46.25607 | 1.12005 | 36905 ft | 438 kts | 168° |
| 2026-05-05 22:50 | 46.19669 | 1.13979 | 36910 ft | 438 kts | 168° |
| 2026-05-05 22:50 | 46.13726 | 1.15953 | 36914 ft | 438 kts | 168° |
| 2026-05-05 22:51 | 46.07788 | 1.17923 | 36920 ft | 438 kts | 168° |
| 2026-05-05 22:51 | 46.01843 | 1.19885 | 36910 ft | 438 kts | 168° |
| 2026-05-05 22:52 | 45.95905 | 1.21832 | 36924 ft | 438 kts | 168° |
| 2026-05-05 22:52 | 45.89966 | 1.23773 | 36924 ft | 438 kts | 168° |
| 2026-05-05 22:53 | 45.84072 | 1.25701 | 36930 ft | 437 kts | 168° |
| 2026-05-05 22:53 | 45.78133 | 1.27645 | 36933 ft | 437 kts | 168° |
| 2026-05-05 22:54 | 45.72199 | 1.29580 | 36929 ft | 437 kts | 169° |
| 2026-05-05 22:54 | 45.66265 | 1.31509 | 36940 ft | 437 kts | 169° |
| 2026-05-05 22:55 | 45.60326 | 1.33438 | 36940 ft | 437 kts | 169° |
| 2026-05-05 22:55 | 45.54390 | 1.35359 | 36935 ft | 438 kts | 169° |
| 2026-05-05 22:56 | 45.48445 | 1.37277 | 36940 ft | 438 kts | 169° |
| 2026-05-05 22:56 | 45.42538 | 1.39188 | 36946 ft | 438 kts | 169° |
| 2026-05-05 22:57 | 45.36592 | 1.41115 | 36947 ft | 438 kts | 169° |
| 2026-05-05 22:57 | 45.30640 | 1.43030 | 36952 ft | 438 kts | 169° |
| 2026-05-05 22:58 | 45.24694 | 1.44929 | 36645 ft | 438 kts | 169° |
| 2026-05-05 22:58 | 45.21725 | 1.45875 | 36397 ft | 437 kts | 169° |
| 2026-05-05 22:58 | 45.18760 | 1.46825 | 36150 ft | 436 kts | 169° |
| 2026-05-05 22:58 | 45.15795 | 1.47772 | 35421 ft | 439 kts | 169° |
| 2026-05-05 22:59 | 45.12803 | 1.48724 | 34571 ft | 442 kts | 169° |
| 2026-05-05 22:59 | 45.09810 | 1.49677 | 33947 ft | 439 kts | 169° |
| 2026-05-05 22:59 | 45.06847 | 1.50623 | 33349 ft | 433 kts | 169° |
| 2026-05-05 22:59 | 45.03931 | 1.51557 | 32802 ft | 427 kts | 169° |
| 2026-05-05 23:00 | 44.98196 | 1.53384 | 31688 ft | 417 kts | 169° |
| 2026-05-05 23:00 | 44.95386 | 1.54273 | 31168 ft | 411 kts | 170° |
| 2026-05-05 23:00 | 44.92608 | 1.55151 | 30648 ft | 407 kts | 169° |
| 2026-05-05 23:01 | 44.89867 | 1.56016 | 30128 ft | 402 kts | 169° |
| 2026-05-05 23:01 | 44.87148 | 1.56876 | 29551 ft | 398 kts | 169° |
| 2026-05-05 23:01 | 44.84471 | 1.57722 | 29058 ft | 391 kts | 169° |
| 2026-05-05 23:01 | 44.81833 | 1.58554 | 28575 ft | 385 kts | 169° |
| 2026-05-05 23:02 | 44.79239 | 1.59369 | 28098 ft | 379 kts | 169° |
| 2026-05-05 23:02 | 44.76677 | 1.60172 | 27635 ft | 374 kts | 169° |
| 2026-05-05 23:02 | 44.74156 | 1.60966 | 27195 ft | 369 kts | 169° |
| 2026-05-05 23:02 | 44.71662 | 1.61752 | 26754 ft | 365 kts | 169° |
| 2026-05-05 23:03 | 44.69196 | 1.62530 | 26334 ft | 361 kts | 169° |
| 2026-05-05 23:03 | 44.66791 | 1.63287 | 25910 ft | 357 kts | 169° |
| 2026-05-05 23:03 | 44.64386 | 1.64041 | 25498 ft | 353 kts | 169° |
| 2026-05-05 23:03 | 44.62000 | 1.64785 | 25083 ft | 349 kts | 168° |
| 2026-05-05 23:04 | 44.59639 | 1.65520 | 24671 ft | 346 kts | 168° |
| 2026-05-05 23:04 | 44.57298 | 1.66248 | 24249 ft | 343 kts | 168° |
| 2026-05-05 23:04 | 44.54983 | 1.66970 | 23831 ft | 340 kts | 168° |
| 2026-05-05 23:04 | 44.52684 | 1.67689 | 23368 ft | 338 kts | 168° |
| 2026-05-05 23:05 | 44.50396 | 1.68404 | 22919 ft | 335 kts | 168° |
| 2026-05-05 23:05 | 44.48139 | 1.69107 | 22493 ft | 331 kts | 168° |
| 2026-05-05 23:05 | 44.46653 | 1.69569 | 22218 ft | 329 kts | 168° |
| 2026-05-05 23:05 | 44.44427 | 1.70259 | 21795 ft | 326 kts | 168° |
| 2026-05-05 23:06 | 44.42217 | 1.70943 | 21376 ft | 324 kts | 168° |
| 2026-05-05 23:06 | 44.40026 | 1.71623 | 20961 ft | 322 kts | 169° |
| 2026-05-05 23:06 | 44.37838 | 1.72305 | 20539 ft | 320 kts | 169° |
| 2026-05-05 23:06 | 44.35668 | 1.72978 | 20132 ft | 319 kts | 169° |
| 2026-05-05 23:07 | 44.33501 | 1.73649 | 19716 ft | 318 kts | 169° |
| 2026-05-05 23:07 | 44.31345 | 1.74316 | 19307 ft | 317 kts | 170° |
| 2026-05-05 23:07 | 44.29166 | 1.74673 | 18899 ft | 315 kts | 181° |
| 2026-05-05 23:07 | 44.26939 | 1.74456 | 18516 ft | 327 kts | 188° |
| 2026-05-05 23:08 | 44.24667 | 1.74062 | 18085 ft | 330 kts | 188° |
| 2026-05-05 23:08 | 44.22388 | 1.73674 | 17660 ft | 329 kts | 188° |
| 2026-05-05 23:08 | 44.20118 | 1.73291 | 17259 ft | 328 kts | 188° |
| 2026-05-05 23:08 | 44.17855 | 1.72912 | 16855 ft | 327 kts | 188° |
| 2026-05-05 23:09 | 44.15628 | 1.72538 | 16460 ft | 326 kts | 188° |
| 2026-05-05 23:09 | 44.13387 | 1.72159 | 16063 ft | 324 kts | 188° |
| 2026-05-05 23:09 | 44.11117 | 1.71778 | 15658 ft | 323 kts | 188° |
| 2026-05-05 23:09 | 44.08920 | 1.71408 | 15268 ft | 322 kts | 188° |
| 2026-05-05 23:10 | 44.06704 | 1.71032 | 14874 ft | 320 kts | 188° |
| 2026-05-05 23:10 | 44.04497 | 1.70657 | 14485 ft | 319 kts | 188° |
| 2026-05-05 23:10 | 44.02297 | 1.70285 | 14092 ft | 317 kts | 188° |
| 2026-05-05 23:10 | 44.00110 | 1.69916 | 13695 ft | 316 kts | 188° |
| 2026-05-05 23:11 | 43.97923 | 1.69551 | 13278 ft | 315 kts | 188° |
| 2026-05-05 23:11 | 43.95757 | 1.69191 | 12899 ft | 313 kts | 188° |
| 2026-05-05 23:11 | 43.93598 | 1.68829 | 12514 ft | 312 kts | 189° |
| 2026-05-05 23:11 | 43.91450 | 1.68466 | 12136 ft | 310 kts | 189° |
| 2026-05-05 23:12 | 43.89313 | 1.68104 | 11754 ft | 309 kts | 189° |
| 2026-05-05 23:12 | 43.87188 | 1.67747 | 11380 ft | 307 kts | 189° |
| 2026-05-05 23:12 | 43.85071 | 1.67394 | 11005 ft | 306 kts | 189° |
| 2026-05-05 23:12 | 43.82965 | 1.67042 | 10630 ft | 304 kts | 189° |
| 2026-05-05 23:13 | 43.80868 | 1.66694 | 10256 ft | 303 kts | 189° |
| 2026-05-05 23:13 | 43.78796 | 1.66353 | 10020 ft | 295 kts | 189° |
| 2026-05-05 23:13 | 43.76779 | 1.66023 | 9769 ft | 288 kts | 189° |
| 2026-05-05 23:13 | 43.74826 | 1.65698 | 9512 ft | 286 kts | 189° |
| 2026-05-05 23:14 | 43.72860 | 1.65369 | 9126 ft | 284 kts | 189° |
| 2026-05-05 23:14 | 43.70902 | 1.65042 | 8718 ft | 282 kts | 189° |
| 2026-05-05 23:14 | 43.68957 | 1.64716 | 8324 ft | 281 kts | 189° |
| 2026-05-05 23:14 | 43.67025 | 1.64394 | 7919 ft | 279 kts | 189° |
| 2026-05-05 23:15 | 43.65101 | 1.64075 | 7532 ft | 277 kts | 189° |
| 2026-05-05 23:15 | 43.63192 | 1.63760 | 7137 ft | 276 kts | 190° |
| 2026-05-05 23:15 | 43.61289 | 1.63445 | 6749 ft | 274 kts | 190° |
| 2026-05-05 23:15 | 43.59405 | 1.63134 | 6500 ft | 267 kts | 190° |
| 2026-05-05 23:16 | 43.57606 | 1.62840 | 6333 ft | 256 kts | 190° |
| 2026-05-05 23:16 | 43.55856 | 1.62554 | 6119 ft | 250 kts | 190° |
| 2026-05-05 23:16 | 43.54126 | 1.62267 | 5959 ft | 251 kts | 191° |
| 2026-05-05 23:16 | 43.52398 | 1.61976 | 5607 ft | 250 kts | 191° |
| 2026-05-05 23:17 | 43.50704 | 1.61655 | 5240 ft | 247 kts | 198° |
| 2026-05-05 23:17 | 43.49180 | 1.60698 | 4884 ft | 239 kts | 220° |
| 2026-05-05 23:17 | 43.48076 | 1.59039 | 4473 ft | 233 kts | 242° |
| 2026-05-05 23:17 | 43.47524 | 1.56985 | 4159 ft | 226 kts | 261° |
| 2026-05-05 23:18 | 43.47212 | 1.54924 | 4030 ft | 213 kts | 263° |
| 2026-05-05 23:18 | 43.47321 | 1.52981 | 3853 ft | 202 kts | 292° |
| 2026-05-05 23:18 | 43.48150 | 1.51462 | 3562 ft | 201 kts | 320° |
| 2026-05-05 23:18 | 43.49269 | 1.50299 | 3239 ft | 201 kts | 320° |
| 2026-05-05 23:19 | 43.50380 | 1.49154 | 3011 ft | 198 kts | 320° |
| 2026-05-05 23:19 | 43.51483 | 1.48017 | 2992 ft | 195 kts | 320° |
| 2026-05-05 23:19 | 43.52543 | 1.46921 | 2847 ft | 186 kts | 320° |
| 2026-05-05 23:19 | 43.53556 | 1.45872 | 2611 ft | 179 kts | 319° |
| 2026-05-05 23:20 | 43.54538 | 1.44855 | 2367 ft | 174 kts | 319° |
| 2026-05-05 23:20 | 43.55487 | 1.43870 | 2141 ft | 169 kts | 319° |
| 2026-05-05 23:20 | 43.56415 | 1.42908 | 1904 ft | 162 kts | 319° |
| 2026-05-05 23:20 | 43.57266 | 1.42027 | 1717 ft | 143 kts | 318° |
| 2026-05-05 23:21 | 43.58027 | 1.41238 | 1513 ft | 133 kts | 319° |
| 2026-05-05 23:21 | 43.58747 | 1.40488 | 1325 ft | 130 kts | 319° |
| 2026-05-05 23:21 | 43.59469 | 1.39736 | 1139 ft | 131 kts | 320° |
| 2026-05-05 23:21 | 43.60200 | 1.38976 | 945 ft | 132 kts | 319° |
| 2026-05-05 23:22 | 43.60934 | 1.38213 | 771 ft | 132 kts | 320° |
| 2026-05-05 23:22 | 43.61667 | 1.37451 | 609 ft | 132 kts | 320° |
| 2026-05-05 23:22 | 43.62387 | 1.36700 | 488 ft | 121 kts | 321° |
| 2026-05-05 23:22 | 43.62931 | 1.36131 | 489 ft | 74 kts | 323° |
| 2026-05-05 23:23 | 43.63224 | 1.35824 | 487 ft | 43 kts | 323° |
| 2026-05-05 23:23 | 43.63441 | 1.35596 | 487 ft | 29 kts | 324° |
| 2026-05-05 23:23 | 43.63569 | 1.35507 | 494 ft | 16 kts | 17° |
| 2026-05-05 23:23 | 43.63641 | 1.35618 | 494 ft | 15 kts | 51° |
| 2026-05-05 23:24 | 43.63703 | 1.35726 | 492 ft | 14 kts | 53° |
| 2026-05-05 23:24 | 43.63757 | 1.35826 | 488 ft | 12 kts | 53° |
| 2026-05-05 23:24 | 43.63807 | 1.35919 | 490 ft | 11 kts | 56° |
| 2026-05-05 23:24 | 43.63797 | 1.36011 | 486 ft | 10 kts | 138° |
| 2026-05-05 23:25 | 43.63739 | 1.36073 | 494 ft | 14 kts | 143° |
| 2026-05-05 23:25 | 43.63636 | 1.36180 | 490 ft | 21 kts | 143° |
| 2026-05-05 23:25 | 43.63515 | 1.36305 | 494 ft | 23 kts | 143° |
| 2026-05-05 23:25 | 43.63379 | 1.36445 | 486 ft | 25 kts | 143° |
| 2026-05-05 23:26 | 43.63269 | 1.36555 | 491 ft | 13 kts | 143° |
| 2026-05-05 23:26 | 43.63201 | 1.36628 | 494 ft | 13 kts | 141° |
| 2026-05-05 23:26 | 43.63125 | 1.36708 | 494 ft | 14 kts | 143° |
| 2026-05-05 23:26 | 43.63114 | 1.36813 | 487 ft | 11 kts | 58° |
| 2026-05-05 23:27 | 43.63107 | 1.36895 | 491 ft | 8 kts | 94° |
| 2026-05-05 23:27 | 43.63122 | 1.36962 | 489 ft | 7 kts | 66° |
| 2026-05-05 23:27 | 43.63135 | 1.37004 | 488 ft | 2 kts | 66° |
| 2026-05-05 23:27 | 43.63137 | 1.37011 | 486 ft | 0 kts | 66° |